Larkspur — C6BR6 — position and weather

sailwx.info

Track history (hours):
 
Tides and Currents Weather Stations Pressure Air Temp Water Temp Dewpoint Dewpoint Depression Visibility Wind Speed Wind Dir Waves Ship Positions

Larkspur

Operator: Transeuropa Lines

Last reported at 2019-May-20 16:29 UTC. Time now 2019-May-20 17:23 UTC.
Position N 29°44' W 095°07'.

Length 225 m; draft 8.2 m.

Type: Tanker. MMSI: 311000344.

Date/timePositionNaut miles runAvg speedWind from/ knotsBaromVisibWave heightAir tempDewpointWater temp
2019-May-20 16:29N 29°44' W 095°07'1 2.8
2019-May-20 16:00N 29°45' W 095°06'2 4.3
2019-May-20 15:29N 29°44' W 095°04'3 6.4
2019-May-20 15:00N 29°42' W 095°01'5 9.9
2019-May-20 14:30N 29°38' W 094°58'613.2
2019-May-20 14:00N 29°32' W 094°54'714.7
2019-May-20 13:30N 29°26' W 094°50'714.5
2019-May-20 13:00N 29°21' W 094°44'814.7
2019-May-20 12:28N 29°18' W 094°36'712.6
2019-May-20 11:57N 29°14' W 094°30'510.8
2019-May-20 11:29N 29°14' W 094°24'2 2.8
2019-May-20 10:41N 29°16' W 094°23'0 0.0
2019-May-20 08:59N 29°16' W 094°23'0 0.0
2019-May-20 02:23N 29°16' W 094°23'0 0.0
2019-May-18 18:32N 29°16' W 094°23'0 0.0
2019-May-18 15:53N 29°16' W 094°23'0 0.0
2019-May-18 15:29N 29°16' W 094°23'0 0.0
2019-May-18 14:41N 29°16' W 094°23'0 0.0
2019-May-18 14:11N 29°16' W 094°23'0 0.1
2019-May-18 13:56N 29°16' W 094°23'0 0.0
2019-May-17 08:32N 29°16' W 094°23'0 0.0
2019-May-17 07:38N 29°16' W 094°23'0 0.0
2019-May-17 07:23N 29°16' W 094°23'0 0.0
2019-May-17 06:41N 29°16' W 094°23'0 0.0
2019-May-17 06:26N 29°16' W 094°23'0 0.0
2019-May-17 05:26N 29°16' W 094°23'0 0.0
2019-May-17 04:47N 29°16' W 094°23'0 0.0
2019-May-17 04:23N 29°16' W 094°23'0 0.0
2019-May-17 03:59N 29°16' W 094°23'0 0.0
2019-May-17 03:29N 29°16' W 094°23'0 0.0
2019-May-17 02:53N 29°16' W 094°23'0 0.0
2019-May-17 02:29N 29°16' W 094°23'0 0.0
2019-May-17 01:59N 29°16' W 094°23'0 0.0
2019-May-17 00:59N 29°16' W 094°23'0 0.0
2019-May-17 00:23N 29°16' W 094°23'0 0.0
2019-May-16 23:26N 29°16' W 094°23'0 0.0
2019-May-16 22:53N 29°16' W 094°23'0 0.0
2019-May-16 22:17N 29°16' W 094°23'0 0.0
2019-May-16 21:59N 29°16' W 094°23'0 0.0
2019-May-16 21:26N 29°16' W 094°23'0 0.0
2019-May-16 20:17N 29°16' W 094°23'0 0.0
2019-May-16 19:32N 29°16' W 094°23'0 0.0
2019-May-16 18:47N 29°16' W 094°23'0 0.0
2019-May-16 15:44N 29°16' W 094°23'0 0.0
2019-May-16 13:38N 29°16' W 094°23'0 0.0
2019-May-16 12:32N 29°16' W 094°23'0 0.0
2019-May-16 12:20N 29°16' W 094°23'0 0.0
2019-May-16 10:35N 29°16' W 094°23'0 0.0
2019-May-16 10:02N 29°16' W 094°23'0 0.2
2019-May-16 09:59N 29°16' W 094°23'0 0.0
2019-May-16 09:29N 29°16' W 094°23'0 0.0
2019-May-16 08:41N 29°16' W 094°23'0 0.0
2019-May-16 07:35N 29°16' W 094°23'0 0.0
2019-May-16 07:14N 29°16' W 094°23'0 0.0
2019-May-16 06:47N 29°16' W 094°23'0 0.0
2019-May-16 06:20N 29°16' W 094°23'0 0.0
2019-May-16 05:56N 29°16' W 094°23'0 0.0
2019-May-16 05:11N 29°16' W 094°23'0 0.0
2019-May-16 04:44N 29°16' W 094°23'0 0.0
2019-May-16 04:20N 29°16' W 094°23'0 0.0
2019-May-16 03:50N 29°16' W 094°23'0 0.0
2019-May-16 02:53N 29°16' W 094°23'0 0.0
2019-May-16 00:44N 29°16' W 094°23'0 0.0
2019-May-15 12:29N 29°16' W 094°23'0 0.0
2019-May-15 06:26N 29°16' W 094°23'0 0.0
2019-May-15 05:08N 29°16' W 094°23'0 0.2
2019-May-15 04:27N 29°16' W 094°23'1 2.9
2019-May-15 03:58N 29°14' W 094°24'5 8.9
2019-May-15 03:25N 29°10' W 094°25'810.1
2019-May-15 02:38N 29°02' W 094°25'3 9.7
2019-May-15 02:19N 28°58' W 094°25'3 9.6
2019-May-15 02:00N 28°56' W 094°25'5 9.5
2019-May-15 01:30N 28°51' W 094°25'5 9.8
2019-May-15 01:00N 28°46' W 094°25'5 9.6
2019-May-15 00:31N 28°41' W 094°24'5 9.5
2019-May-15 00:00N 28°36' W 094°25'5 9.6
2019-May-14 23:31N 28°32' W 094°25'  
Track history (hours):
 
Tides and Currents Weather Stations Pressure Air Temp Water Temp Dewpoint Dewpoint Depression Visibility Wind Speed Wind Dir Waves Ship Positions

Larkspur

Operator: Transeuropa Lines

Last reported at 2019-May-20 16:29 UTC. Time now 2019-May-20 17:23 UTC.
Position N 29°44' W 095°07'.

Length 225 m; draft 8.2 m.

Type: Tanker. MMSI: 311000344.

Date/timePositionNaut miles runAvg speedWind from/ knotsBaromVisibWave heightAir tempDewpointWater temp
2019-May-20 16:29N 29°44' W 095°07'1 2.8
2019-May-20 16:00N 29°45' W 095°06'2 4.3
2019-May-20 15:29N 29°44' W 095°04'3 6.4
2019-May-20 15:00N 29°42' W 095°01'5 9.9
2019-May-20 14:30N 29°38' W 094°58'613.2
2019-May-20 14:00N 29°32' W 094°54'714.7
2019-May-20 13:30N 29°26' W 094°50'714.5
2019-May-20 13:00N 29°21' W 094°44'814.7
2019-May-20 12:28N 29°18' W 094°36'712.6
2019-May-20 11:57N 29°14' W 094°30'510.8
2019-May-20 11:29N 29°14' W 094°24'2 2.8
2019-May-20 10:41N 29°16' W 094°23'0 0.0
2019-May-20 08:59N 29°16' W 094°23'0 0.0
2019-May-20 02:23N 29°16' W 094°23'0 0.0
2019-May-18 18:32N 29°16' W 094°23'0 0.0
2019-May-18 15:53N 29°16' W 094°23'0 0.0
2019-May-18 15:29N 29°16' W 094°23'0 0.0
2019-May-18 14:41N 29°16' W 094°23'0 0.0
2019-May-18 14:11N 29°16' W 094°23'0 0.1
2019-May-18 13:56N 29°16' W 094°23'0 0.0
2019-May-17 08:32N 29°16' W 094°23'0 0.0
2019-May-17 07:38N 29°16' W 094°23'0 0.0
2019-May-17 07:23N 29°16' W 094°23'0 0.0
2019-May-17 06:41N 29°16' W 094°23'0 0.0
2019-May-17 06:26N 29°16' W 094°23'0 0.0
2019-May-17 05:26N 29°16' W 094°23'0 0.0
2019-May-17 04:47N 29°16' W 094°23'0 0.0
2019-May-17 04:23N 29°16' W 094°23'0 0.0
2019-May-17 03:59N 29°16' W 094°23'0 0.0
2019-May-17 03:29N 29°16' W 094°23'0 0.0
2019-May-17 02:53N 29°16' W 094°23'0 0.0
2019-May-17 02:29N 29°16' W 094°23'0 0.0
2019-May-17 01:59N 29°16' W 094°23'0 0.0
2019-May-17 00:59N 29°16' W 094°23'0 0.0
2019-May-17 00:23N 29°16' W 094°23'0 0.0
2019-May-16 23:26N 29°16' W 094°23'0 0.0
2019-May-16 22:53N 29°16' W 094°23'0 0.0
2019-May-16 22:17N 29°16' W 094°23'0 0.0
2019-May-16 21:59N 29°16' W 094°23'0 0.0
2019-May-16 21:26N 29°16' W 094°23'0 0.0
2019-May-16 20:17N 29°16' W 094°23'0 0.0
2019-May-16 19:32N 29°16' W 094°23'0 0.0
2019-May-16 18:47N 29°16' W 094°23'0 0.0
2019-May-16 15:44N 29°16' W 094°23'0 0.0
2019-May-16 13:38N 29°16' W 094°23'0 0.0
2019-May-16 12:32N 29°16' W 094°23'0 0.0
2019-May-16 12:20N 29°16' W 094°23'0 0.0
2019-May-16 10:35N 29°16' W 094°23'0 0.0
2019-May-16 10:02N 29°16' W 094°23'0 0.2
2019-May-16 09:59N 29°16' W 094°23'0 0.0
2019-May-16 09:29N 29°16' W 094°23'0 0.0
2019-May-16 08:41N 29°16' W 094°23'0 0.0
2019-May-16 07:35N 29°16' W 094°23'0 0.0
2019-May-16 07:14N 29°16' W 094°23'0 0.0
2019-May-16 06:47N 29°16' W 094°23'0 0.0
2019-May-16 06:20N 29°16' W 094°23'0 0.0
2019-May-16 05:56N 29°16' W 094°23'0 0.0
2019-May-16 05:11N 29°16' W 094°23'0 0.0
2019-May-16 04:44N 29°16' W 094°23'0 0.0
2019-May-16 04:20N 29°16' W 094°23'0 0.0
2019-May-16 03:50N 29°16' W 094°23'0 0.0
2019-May-16 02:53N 29°16' W 094°23'0 0.0
2019-May-16 00:44N 29°16' W 094°23'0 0.0
2019-May-15 12:29N 29°16' W 094°23'0 0.0
2019-May-15 06:26N 29°16' W 094°23'0 0.0
2019-May-15 05:08N 29°16' W 094°23'0 0.2
2019-May-15 04:27N 29°16' W 094°23'1 2.9
2019-May-15 03:58N 29°14' W 094°24'5 8.9
2019-May-15 03:25N 29°10' W 094°25'810.1
2019-May-15 02:38N 29°02' W 094°25'3 9.7
2019-May-15 02:19N 28°58' W 094°25'3 9.6
2019-May-15 02:00N 28°56' W 094°25'5 9.5
2019-May-15 01:30N 28°51' W 094°25'5 9.8
2019-May-15 01:00N 28°46' W 094°25'5 9.6
2019-May-15 00:31N 28°41' W 094°24'5 9.5
2019-May-15 00:00N 28°36' W 094°25'5 9.6
2019-May-14 23:31N 28°32' W 094°25'  

Dump ship's entire track history